Time;durP1;ratioP1;P1;durP2;ratioP2;P2;SDS_P1;SDS_P2;PMS_P1;PMS_P2;Temp;Humidity;BMP_temperature;BMP_pressure;BME280_temperature;BME280_humidity;BME280_pressure;Samples;Min_cycle;Max_cycle;Signal;HPM_P1;HPM_P2
2021/09/14 00:00:52;;;;;;;30.23;16.60;;;12.80;99.90;;;;;;4192085;28;20429;-71
2021/09/14 00:02:53;;;;;;;30.77;16.23;;;12.70;99.90;;;;;;4197652;28;20345;-73
2021/09/14 00:04:53;;;;;;;26.33;16.38;;;12.70;99.90;;;;;;4192527;28;20071;-72
2021/09/14 00:06:54;;;;;;;29.52;15.68;;;12.60;99.90;;;;;;4196557;28;20345;-71
2021/09/14 00:08:55;;;;;;;27.42;15.23;;;12.50;99.90;;;;;;4194959;28;20036;-72
2021/09/14 00:10:55;;;;;;;31.08;15.25;;;12.50;99.90;;;;;;4198343;28;20492;-71
2021/09/14 00:12:56;;;;;;;28.55;15.50;;;12.60;99.90;;;;;;4193507;28;20363;-72
2021/09/14 00:14:57;;;;;;;28.08;16.75;;;12.50;99.90;;;;;;4196634;28;20084;-71
2021/09/14 00:16:57;;;;;;;32.67;16.30;;;12.50;99.90;;;;;;4192283;28;20029;-72
2021/09/14 00:18:58;;;;;;;32.03;16.00;;;12.50;99.90;;;;;;4195647;28;20021;-72
2021/09/14 00:20:59;;;;;;;40.55;16.73;;;12.40;99.90;;;;;;4194359;28;20041;-72
2021/09/14 00:23:02;;;;;;;31.80;17.58;;;12.40;99.90;;;;;;4195951;28;20032;-72
2021/09/14 00:25:03;;;;;;;31.98;17.30;;;12.30;99.90;;;;;;4191296;28;20049;-72
2021/09/14 00:27:03;;;;;;;35.05;17.38;;;12.40;99.90;;;;;;4193150;28;20068;-72
2021/09/14 00:29:04;;;;;;;30.05;18.38;;;12.40;99.90;;;;;;4194850;28;20039;-71
2021/09/14 00:31:05;;;;;;;30.40;17.52;;;12.30;99.90;;;;;;4195453;28;20120;-72
2021/09/14 00:33:05;;;;;;;32.95;18.48;;;12.30;99.90;;;;;;4193140;28;20106;-72
2021/09/14 00:35:07;;;;;;;36.28;17.67;;;12.30;99.90;;;;;;4193567;28;20461;-72
2021/09/14 00:37:07;;;;;;;34.75;17.92;;;12.30;99.90;;;;;;4192728;28;20527;-71
2021/09/14 00:39:08;;;;;;;40.00;18.63;;;12.20;99.90;;;;;;4193956;28;20029;-71
2021/09/14 00:41:09;;;;;;;36.42;18.63;;;12.20;99.90;;;;;;4194936;28;20086;-71
2021/09/14 00:43:16;;;;;;;39.55;19.95;;;12.10;99.90;;;;;;4198354;28;20084;-71
2021/09/14 00:45:17;;;;;;;31.13;17.80;;;12.10;99.90;;;;;;4194214;28;20029;-71
2021/09/14 00:47:18;;;;;;;39.17;19.98;;;12.10;99.90;;;;;;4197177;28;20086;-71
2021/09/14 00:49:18;;;;;;;35.85;19.98;;;12.20;99.90;;;;;;4190216;28;20048;-71
2021/09/14 00:51:19;;;;;;;35.28;18.67;;;12.20;99.90;;;;;;4195372;28;20066;-71
2021/09/14 00:53:20;;;;;;;39.47;20.42;;;12.10;99.90;;;;;;4195345;28;20036;-71
2021/09/14 00:55:20;;;;;;;44.70;22.40;;;12.10;99.90;;;;;;4197956;28;22949;-72
2021/09/14 00:57:21;;;;;;;42.40;20.58;;;12.20;99.90;;;;;;4190963;28;20045;-72
2021/09/14 00:59:21;;;;;;;40.22;20.38;;;12.20;99.90;;;;;;4192006;28;20033;-71
2021/09/14 01:01:22;;;;;;;42.92;21.13;;;12.20;99.90;;;;;;4194167;28;20365;-71
2021/09/14 01:03:22;;;;;;;40.20;21.08;;;12.20;99.90;;;;;;4195419;28;20035;-72
2021/09/14 01:05:23;;;;;;;42.35;20.65;;;12.20;99.90;;;;;;4193142;28;20475;-72
2021/09/14 01:07:24;;;;;;;44.65;22.02;;;12.20;99.90;;;;;;4192844;28;20068;-72
2021/09/14 01:09:26;;;;;;;39.28;21.75;;;12.20;99.90;;;;;;4193339;28;20028;-72
2021/09/14 01:11:29;;;;;;;42.10;21.40;;;12.10;99.90;;;;;;4190550;28;20029;-72
2021/09/14 01:13:29;;;;;;;40.17;19.90;;;12.00;99.90;;;;;;4190804;28;20484;-72
2021/09/14 01:15:30;;;;;;;45.00;19.73;;;11.90;99.90;;;;;;4192479;28;20337;-72
2021/09/14 01:17:30;;;;;;;40.00;20.70;;;11.80;99.90;;;;;;4195601;28;20062;-72
2021/09/14 01:19:31;;;;;;;39.35;19.80;;;11.80;99.90;;;;;;4196573;28;20495;-71
2021/09/14 01:21:33;;;;;;;42.63;21.75;;;11.80;99.90;;;;;;4194143;28;20479;-72
2021/09/14 01:23:33;;;;;;;44.58;20.63;;;11.80;99.90;;;;;;4196689;28;20028;-72
2021/09/14 01:25:34;;;;;;;44.50;22.58;;;11.80;99.90;;;;;;4194748;28;20341;-72
2021/09/14 01:27:35;;;;;;;47.03;23.83;;;11.90;99.90;;;;;;4196746;28;20519;-71
2021/09/14 01:31:55;;;;;;;45.95;22.13;;;11.90;99.90;;;;;;4194135;28;20056;-72
2021/09/14 01:33:55;;;;;;;46.22;22.17;;;11.90;99.90;;;;;;4191812;28;20116;-71
2021/09/14 01:35:56;;;;;;;42.53;21.52;;;11.80;99.90;;;;;;4196746;28;20528;-72
2021/09/14 01:37:58;;;;;;;43.58;21.77;;;11.80;99.90;;;;;;4191909;28;20048;-71
2021/09/14 01:39:59;;;;;;;50.22;20.85;;;11.70;99.90;;;;;;4196912;28;20050;-72
2021/09/14 01:41:59;;;;;;;51.53;21.73;;;11.60;99.90;;;;;;4195278;28;20120;-74
2021/09/14 01:44:00;;;;;;;44.75;20.98;;;11.60;99.90;;;;;;4194752;28;20044;-71
2021/09/14 01:46:01;;;;;;;44.97;19.58;;;11.60;99.90;;;;;;4195739;28;20037;-71
2021/09/14 01:48:01;;;;;;;46.03;21.38;;;11.50;99.90;;;;;;4196594;28;20380;-70
2021/09/14 01:50:07;;;;;;;44.85;20.85;;;11.40;99.90;;;;;;4188553;28;20021;-72
2021/09/14 01:52:08;;;;;;;45.17;21.42;;;11.40;99.90;;;;;;4194969;28;20028;-72
2021/09/14 01:54:09;;;;;;;46.97;21.25;;;11.40;99.90;;;;;;4195584;28;20031;-71
2021/09/14 01:56:10;;;;;;;48.97;21.45;;;11.40;99.90;;;;;;4196457;28;20040;-71
2021/09/14 01:58:11;;;;;;;47.17;22.35;;;11.40;99.90;;;;;;4187368;28;20059;-70
2021/09/14 02:00:26;;;;;;;38.95;20.63;;;11.30;99.90;;;;;;4196176;28;20617;-72
2021/09/14 02:05:00;;;;;;;51.38;20.98;;;11.30;99.90;;;;;;4194971;28;20040;-72
2021/09/14 02:07:19;;;;;;;51.65;22.90;;;11.40;99.90;;;;;;4196369;28;20470;-72
2021/09/14 02:33:46;;;;;;;52.50;21.90;;;11.10;99.90;;;;;;4189953;28;20503;-71
2021/09/14 02:42:07;;;;;;;55.83;23.38;;;11.00;99.90;;;;;;4190409;28;20032;-71
2021/09/14 03:00:22;;;;;;;61.25;24.85;;;11.00;99.90;;;;;;4192551;28;20093;-72
2021/09/14 03:02:23;;;;;;;65.32;25.15;;;10.90;99.90;;;;;;4191229;28;20041;-72
2021/09/14 03:04:24;;;;;;;56.63;25.30;;;10.90;99.90;;;;;;4200459;28;20549;-72
2021/09/14 03:06:24;;;;;;;56.65;27.05;;;13.10;99.90;;;;;;4189343;28;20025;-72
2021/09/14 03:08:25;;;;;;;59.03;25.52;;;11.10;99.90;;;;;;4195549;28;20183;-72
2021/09/14 03:10:25;;;;;;;69.22;26.85;;;11.20;99.90;;;;;;4190683;28;20078;-72
2021/09/14 03:12:26;;;;;;;66.82;25.95;;;11.20;99.90;;;;;;4194022;28;20060;-73
2021/09/14 03:14:27;;;;;;;58.58;25.73;;;11.20;99.90;;;;;;4190955;28;20037;-72
2021/09/14 03:16:28;;;;;;;58.90;27.45;;;11.10;99.90;;;;;;4195453;28;20048;-72
2021/09/14 03:18:28;;;;;;;59.35;26.27;;;11.20;99.90;;;;;;4193510;28;20370;-71
2021/09/14 03:20:29;;;;;;;57.40;26.52;;;11.20;99.90;;;;;;4199152;28;20074;-71
2021/09/14 03:22:30;;;;;;;69.68;27.50;;;11.20;99.90;;;;;;4189156;28;20484;-72
2021/09/14 03:24:30;;;;;;;60.58;27.85;;;11.20;99.90;;;;;;4195351;28;20039;-71
2021/09/14 03:26:31;;;;;;;57.33;26.52;;;11.20;99.90;;;;;;4190322;28;20025;-71
2021/09/14 03:28:31;;;;;;;55.33;26.52;;;11.10;99.90;;;;;;4195152;28;20434;-71
2021/09/14 03:30:32;;;;;;;65.13;26.95;;;11.10;99.90;;;;;;4191189;28;20033;-71
2021/09/14 03:32:33;;;;;;;75.20;28.95;;;11.00;99.90;;;;;;4195560;28;20025;-71
2021/09/14 03:34:33;;;;;;;66.78;26.75;;;11.00;99.90;;;;;;4192170;28;20403;-71
2021/09/14 03:36:34;;;;;;;65.82;28.42;;;11.10;99.90;;;;;;4200844;28;20064;-72
2021/09/14 03:38:34;;;;;;;58.40;25.55;;;11.10;99.90;;;;;;4194382;28;20384;-71
2021/09/14 03:40:35;;;;;;;63.60;27.30;;;11.10;99.90;;;;;;4194136;28;20028;-72
2021/09/14 03:42:36;;;;;;;80.07;27.17;;;11.10;99.90;;;;;;4188183;28;20029;-72
2021/09/14 03:44:36;;;;;;;63.10;27.65;;;11.10;99.90;;;;;;4193753;28;20041;-72
2021/09/14 03:46:37;;;;;;;70.90;28.40;;;11.10;99.90;;;;;;4189774;28;20025;-72
2021/09/14 03:48:38;;;;;;;68.25;28.27;;;11.20;99.90;;;;;;4193776;28;20451;-72
2021/09/14 03:50:39;;;;;;;65.85;29.75;;;11.20;99.90;;;;;;4193483;28;20472;-72
2021/09/14 03:52:39;;;;;;;66.07;29.88;;;11.30;99.90;;;;;;4195424;28;20131;-72
2021/09/14 03:54:40;;;;;;;64.50;29.40;;;11.40;99.90;;;;;;4187297;28;20033;-72
2021/09/14 03:56:41;;;;;;;68.28;30.60;;;11.50;99.90;;;;;;4195136;28;20078;-72
2021/09/14 03:58:41;;;;;;;71.38;30.40;;;11.50;99.90;;;;;;4189928;28;20025;-72
2021/09/14 04:00:43;;;;;;;73.95;30.77;;;11.50;99.90;;;;;;4195261;28;20044;-72
2021/09/14 04:02:49;;;;;;;71.70;30.50;;;11.50;99.90;;;;;;4188356;28;20029;-72
2021/09/14 04:07:10;;;;;;;66.65;28.75;;;11.50;99.90;;;;;;4191780;28;20029;-72
2021/09/14 04:09:10;;;;;;;70.07;28.98;;;11.40;99.90;;;;;;4194236;28;20052;-72
2021/09/14 04:11:11;;;;;;;74.57;30.00;;;11.40;99.90;;;;;;4190316;28;20059;-71
2021/09/14 04:13:12;;;;;;;68.43;30.13;;;11.30;99.90;;;;;;4194464;28;20492;-71
2021/09/14 04:15:13;;;;;;;74.60;31.25;;;11.30;99.90;;;;;;4189511;28;20526;-71
2021/09/14 04:17:13;;;;;;;65.35;30.02;;;11.30;99.90;;;;;;4194511;28;20029;-71
2021/09/14 04:19:14;;;;;;;68.78;30.58;;;11.30;99.90;;;;;;4188327;28;20025;-71
2021/09/14 04:21:15;;;;;;;63.28;29.08;;;11.30;99.90;;;;;;4194551;28;20040;-72
2021/09/14 04:23:15;;;;;;;74.93;31.55;;;11.30;99.90;;;;;;4192726;28;20051;-72
2021/09/14 04:25:16;;;;;;;73.93;30.58;;;11.30;99.90;;;;;;4194090;28;20037;-72
2021/09/14 04:27:17;;;;;;;69.55;30.35;;;11.20;99.90;;;;;;4185384;28;20431;-72
2021/09/14 04:29:18;;;;;;;73.72;32.08;;;11.20;99.90;;;;;;4189590;28;20100;-72
2021/09/14 04:31:18;;;;;;;73.95;30.95;;;11.10;99.90;;;;;;4189512;28;20099;-71
2021/09/14 04:33:19;;;;;;;74.20;29.55;;;11.00;99.90;;;;;;4191132;28;20032;-71
2021/09/14 04:35:20;;;;;;;63.10;26.77;;;11.00;99.90;;;;;;4193149;28;20025;-72
2021/09/14 04:37:20;;;;;;;61.22;28.17;;;10.90;99.90;;;;;;4194369;28;20040;-71
2021/09/14 04:39:21;;;;;;;69.13;27.23;;;10.90;99.90;;;;;;4191987;28;20032;-71
2021/09/14 04:41:21;;;;;;;72.55;29.85;;;10.80;99.90;;;;;;4193138;28;20491;-71
2021/09/14 04:43:22;;;;;;;71.00;26.38;;;10.80;99.90;;;;;;4190855;28;20028;-71
2021/09/14 04:45:23;;;;;;;68.95;29.90;;;10.70;99.90;;;;;;4195324;28;20040;-71
2021/09/14 04:47:24;;;;;;;66.75;26.00;;;10.70;99.90;;;;;;4193055;28;20029;-72
2021/09/14 04:49:24;;;;;;;61.53;24.98;;;10.70;99.90;;;;;;4197318;28;20020;-72
2021/09/14 04:51:25;;;;;;;71.97;26.83;;;10.70;99.90;;;;;;4195679;28;20174;-72
2021/09/14 04:53:25;;;;;;;74.40;29.55;;;10.60;99.90;;;;;;4197415;28;20064;-71
2021/09/14 04:55:26;;;;;;;67.47;29.75;;;10.60;99.90;;;;;;4195219;28;20028;-72
2021/09/14 04:57:27;;;;;;;69.07;26.02;;;10.60;99.90;;;;;;4197143;28;20037;-72
2021/09/14 04:59:27;;;;;;;67.10;28.73;;;10.70;99.90;;;;;;4193926;28;20044;-73
2021/09/14 05:01:28;;;;;;;65.05;25.85;;;10.70;99.90;;;;;;4194387;28;20068;-72
2021/09/14 05:03:29;;;;;;;71.20;26.27;;;10.70;99.90;;;;;;4191252;28;20479;-71
2021/09/14 05:05:29;;;;;;;76.57;27.55;;;10.70;99.90;;;;;;4196013;28;20496;-72
2021/09/14 05:07:30;;;;;;;73.20;29.58;;;10.60;99.90;;;;;;4194455;28;20480;-73
2021/09/14 05:09:31;;;;;;;78.38;29.60;;;10.60;99.90;;;;;;4196466;28;20021;-72
2021/09/14 05:11:31;;;;;;;78.47;30.45;;;10.70;99.90;;;;;;4188238;28;20033;-72
2021/09/14 05:13:34;;;;;;;83.13;32.30;;;10.60;99.90;;;;;;4194318;28;20108;-72
2021/09/14 05:15:34;;;;;;;80.75;31.88;;;10.80;99.90;;;;;;4192823;28;20517;-72
2021/09/14 05:17:35;;;;;;;74.03;31.00;;;10.90;99.90;;;;;;4195964;28;20032;-73
2021/09/14 05:19:37;;;;;;;82.30;34.03;;;11.00;99.90;;;;;;4189287;28;20593;-72
2021/09/14 05:21:46;;;;;;;76.90;31.65;;;11.10;99.90;;;;;;4195709;28;20045;-72
2021/09/14 05:23:47;;;;;;;89.05;34.08;;;11.10;99.90;;;;;;4196034;28;20067;-72
2021/09/14 05:25:47;;;;;;;84.47;34.92;;;11.10;99.90;;;;;;4192638;28;20405;-72
2021/09/14 05:27:48;;;;;;;86.00;35.53;;;11.20;99.90;;;;;;4190295;28;20060;-72
2021/09/14 05:29:49;;;;;;;86.30;34.75;;;11.20;99.90;;;;;;4191292;28;20491;-72
2021/09/14 05:31:50;;;;;;;95.10;35.17;;;11.20;99.90;;;;;;4189489;28;20115;-72
2021/09/14 05:33:51;;;;;;;92.20;42.85;;;11.30;99.90;;;;;;4192419;28;20447;-73
2021/09/14 05:35:54;;;;;;;84.45;37.63;;;11.30;99.90;;;;;;4189520;28;20025;-72
2021/09/14 05:37:55;;;;;;;86.95;42.38;;;11.30;99.90;;;;;;4194138;28;20385;-73
2021/09/14 05:39:56;;;;;;;80.93;34.50;;;11.30;99.90;;;;;;4192853;28;20039;-72
2021/09/14 05:41:57;;;;;;;91.80;42.90;;;11.40;99.90;;;;;;4195168;28;20036;-72
2021/09/14 05:43:58;;;;;;;79.78;35.45;;;11.50;99.90;;;;;;4192307;28;20099;-72
2021/09/14 05:45:58;;;;;;;80.68;35.88;;;11.50;99.90;;;;;;4194314;28;20040;-72
2021/09/14 05:48:00;;;;;;;81.25;33.78;;;11.60;99.90;;;;;;4194024;28;20072;-72
2021/09/14 05:50:01;;;;;;;86.60;35.15;;;11.70;99.90;;;;;;4189609;28;20373;-72
2021/09/14 05:52:02;;;;;;;88.00;36.70;;;11.80;99.90;;;;;;4194093;28;20024;-71
2021/09/14 05:54:03;;;;;;;96.97;39.83;;;11.90;99.90;;;;;;4206409;28;20154;-72
2021/09/14 05:56:04;;;;;;;88.85;39.30;;;12.00;99.90;;;;;;4191994;28;20476;-72
2021/09/14 05:58:05;;;;;;;97.63;38.92;;;12.10;99.90;;;;;;4192072;28;20024;-72
2021/09/14 06:00:07;;;;;;;84.75;38.00;;;12.10;99.90;;;;;;4190930;28;20060;-72
2021/09/14 06:02:07;;;;;;;94.88;39.97;;;12.20;99.90;;;;;;4192329;28;20066;-72
2021/09/14 06:04:08;;;;;;;86.45;40.08;;;12.30;99.90;;;;;;4190483;28;20036;-72
2021/09/14 06:06:09;;;;;;;91.43;39.63;;;12.30;99.90;;;;;;4195053;28;20094;-72
2021/09/14 06:08:09;;;;;;;91.43;38.13;;;12.40;99.90;;;;;;4191781;28;20714;-72
2021/09/14 06:10:10;;;;;;;87.68;39.53;;;12.50;99.90;;;;;;4194550;28;20036;-72
2021/09/14 06:12:10;;;;;;;84.85;39.88;;;12.50;99.90;;;;;;4194618;28;20060;-72
2021/09/14 06:14:11;;;;;;;86.95;38.10;;;12.60;99.90;;;;;;4193988;28;20028;-73
2021/09/14 06:16:12;;;;;;;77.63;37.08;;;12.70;99.90;;;;;;4191839;28;20040;-73
2021/09/14 06:18:12;;;;;;;79.95;37.90;;;12.70;99.90;;;;;;4190153;28;20115;-73
2021/09/14 06:20:13;;;;;;;77.57;38.08;;;12.80;99.90;;;;;;4186617;28;20042;-72
2021/09/14 06:22:14;;;;;;;74.90;36.80;;;12.80;99.90;;;;;;4190727;28;20078;-72
2021/09/14 06:24:14;;;;;;;80.93;37.58;;;12.90;99.90;;;;;;4188134;28;20063;-72
2021/09/14 06:26:15;;;;;;;71.07;34.30;;;12.90;99.90;;;;;;4195069;28;20032;-73
2021/09/14 06:28:16;;;;;;;75.20;37.53;;;13.00;99.90;;;;;;4189906;28;20035;-72
2021/09/14 06:30:17;;;;;;;78.80;36.95;;;13.00;99.90;;;;;;4193470;28;20444;-72
2021/09/14 06:32:17;;;;;;;69.93;35.80;;;13.10;99.90;;;;;;4195372;28;20399;-73
2021/09/14 06:34:18;;;;;;;74.20;34.10;;;13.10;99.90;;;;;;4193395;28;20028;-72
2021/09/14 06:36:19;;;;;;;70.30;34.80;;;13.10;99.90;;;;;;4187241;28;20226;-72
2021/09/14 06:38:20;;;;;;;73.68;35.92;;;13.20;99.90;;;;;;4195348;28;20044;-72
2021/09/14 06:40:20;;;;;;;72.57;35.10;;;13.20;99.90;;;;;;4193980;28;20040;-72
2021/09/14 06:42:21;;;;;;;72.85;36.47;;;13.30;99.90;;;;;;4192031;28;20514;-72
2021/09/14 06:44:23;;;;;;;72.97;35.90;;;13.30;99.90;;;;;;4190255;28;20028;-72
2021/09/14 06:46:24;;;;;;;66.75;34.38;;;13.30;99.90;;;;;;4194587;28;20337;-70
2021/09/14 06:48:25;;;;;;;71.60;36.63;;;13.40;99.90;;;;;;4190550;28;20036;-70
2021/09/14 06:50:25;;;;;;;63.58;33.83;;;13.40;99.90;;;;;;4194348;28;20051;-71
2021/09/14 06:52:26;;;;;;;73.88;35.08;;;13.40;99.90;;;;;;4193323;28;20036;-72
2021/09/14 06:54:27;;;;;;;65.30;34.22;;;13.50;99.90;;;;;;4192878;28;20036;-72
2021/09/14 06:56:27;;;;;;;68.45;34.50;;;13.50;99.90;;;;;;4188585;28;20028;-72
2021/09/14 06:58:28;;;;;;;69.43;35.83;;;13.50;99.90;;;;;;4195633;28;20040;-72
2021/09/14 07:00:28;;;;;;;69.18;35.10;;;13.50;99.90;;;;;;4186606;28;20028;-72
2021/09/14 07:02:29;;;;;;;61.80;33.17;;;13.60;99.90;;;;;;4192185;28;20102;-72
2021/09/14 07:04:30;;;;;;;64.03;33.30;;;13.60;99.90;;;;;;4188796;28;20029;-71
2021/09/14 07:06:30;;;;;;;58.50;32.83;;;13.60;99.90;;;;;;4194734;28;20705;-71
2021/09/14 07:08:31;;;;;;;57.63;32.05;;;13.70;99.90;;;;;;4193588;28;20036;-71
2021/09/14 07:10:32;;;;;;;57.45;32.00;;;13.70;99.90;;;;;;4197985;28;20106;-71
2021/09/14 07:12:32;;;;;;;55.80;32.22;;;13.80;99.90;;;;;;4191021;28;20535;-71
2021/09/14 07:14:33;;;;;;;62.33;32.20;;;13.80;99.90;;;;;;4191033;28;20061;-71
2021/09/14 07:16:34;;;;;;;58.33;31.35;;;13.80;99.90;;;;;;4190295;28;20033;-71
2021/09/14 07:18:38;;;;;;;53.90;31.90;;;13.90;99.90;;;;;;4192426;28;20028;-71
2021/09/14 07:20:39;;;;;;;57.85;31.67;;;13.90;99.90;;;;;;4193645;28;20036;-73
2021/09/14 07:22:39;;;;;;;51.05;31.08;;;13.90;99.90;;;;;;4192851;28;20136;-72
2021/09/14 07:24:40;;;;;;;48.08;28.80;;;13.90;99.90;;;;;;4192306;28;20432;-72
2021/09/14 07:26:41;;;;;;;43.17;28.65;;;14.00;99.90;;;;;;4193467;28;20052;-72
2021/09/14 07:28:42;;;;;;;46.45;29.48;;;14.10;99.90;;;;;;4188628;28;20503;-72
2021/09/14 07:30:43;;;;;;;48.42;29.35;;;14.20;99.90;;;;;;4192104;28;20563;-72
2021/09/14 07:32:43;;;;;;;47.05;27.95;;;14.10;99.90;;;;;;4188737;28;20043;-72
2021/09/14 07:34:44;;;;;;;42.55;28.58;;;14.30;99.90;;;;;;4193361;28;20388;-72
2021/09/14 07:36:45;;;;;;;44.17;27.63;;;14.30;99.90;;;;;;4188561;28;20036;-72
2021/09/14 07:38:45;;;;;;;49.50;27.50;;;14.20;99.90;;;;;;4191185;28;20061;-72
2021/09/14 07:40:46;;;;;;;41.95;26.80;;;14.30;99.90;;;;;;4193262;28;20032;-72
2021/09/14 07:42:46;;;;;;;40.28;26.48;;;14.40;99.90;;;;;;4190834;28;20029;-72
2021/09/14 07:44:49;;;;;;;36.63;26.23;;;14.40;99.90;;;;;;4197507;28;20182;-72
2021/09/14 07:46:50;;;;;;;38.15;26.60;;;14.50;99.90;;;;;;4192058;28;20506;-72
2021/09/14 07:48:50;;;;;;;38.05;26.05;;;14.60;99.90;;;;;;4193560;28;20067;-72
2021/09/14 07:50:52;;;;;;;37.78;25.20;;;14.70;99.90;;;;;;4192440;28;20029;-71
2021/09/14 07:52:53;;;;;;;33.20;24.30;;;14.70;99.90;;;;;;4186982;28;20082;-72
2021/09/14 07:54:53;;;;;;;36.15;25.60;;;14.80;99.90;;;;;;4192104;28;20464;-72
2021/09/14 07:56:54;;;;;;;34.20;25.23;;;14.90;99.90;;;;;;4187625;28;20396;-72
2021/09/14 07:58:55;;;;;;;32.92;25.27;;;15.00;99.90;;;;;;4192891;28;20033;-73
2021/09/14 08:00:55;;;;;;;32.35;27.08;;;15.10;99.90;;;;;;4191054;28;20059;-71
2021/09/14 08:02:57;;;;;;;29.90;22.95;;;15.20;99.90;;;;;;4189377;28;20025;-72
2021/09/14 08:04:58;;;;;;;35.05;25.80;;;15.30;99.90;;;;;;4190355;28;20178;-72
2021/09/14 08:06:59;;;;;;;31.17;23.40;;;15.40;99.90;;;;;;4191294;28;20044;-73
2021/09/14 08:09:00;;;;;;;30.02;25.23;;;15.60;99.90;;;;;;4187009;28;20040;-72
2021/09/14 08:11:00;;;;;;;27.70;22.58;;;15.60;99.90;;;;;;4195451;28;20119;-73
2021/09/14 08:13:02;;;;;;;31.73;25.35;;;15.60;99.90;;;;;;4193056;28;20143;-71
2021/09/14 08:15:03;;;;;;;30.10;22.60;;;15.60;99.90;;;;;;4191169;28;20036;-72
2021/09/14 08:17:04;;;;;;;29.73;23.67;;;15.60;99.90;;;;;;4187729;28;20033;-72
2021/09/14 08:19:04;;;;;;;27.05;22.05;;;15.70;99.90;;;;;;4191377;28;20026;-72
2021/09/14 08:21:05;;;;;;;26.48;22.98;;;15.80;99.90;;;;;;4189691;28;20056;-71
2021/09/14 08:23:05;;;;;;;26.77;22.02;;;15.90;99.90;;;;;;4192625;28;20201;-71
2021/09/14 08:25:07;;;;;;;26.75;22.77;;;16.00;99.90;;;;;;4196045;28;20032;-72
2021/09/14 08:27:07;;;;;;;27.67;22.48;;;16.10;99.90;;;;;;4192311;28;20032;-71
2021/09/14 08:29:08;;;;;;;27.58;22.75;;;16.20;99.90;;;;;;4195576;28;20028;-70
2021/09/14 08:31:09;;;;;;;22.95;19.33;;;16.30;99.90;;;;;;4195666;28;20033;-71
2021/09/14 08:33:10;;;;;;;23.85;20.17;;;16.50;99.90;;;;;;4190763;28;20587;-71
2021/09/14 08:35:10;;;;;;;25.95;22.38;;;16.60;99.90;;;;;;4196381;28;20152;-72
2021/09/14 08:37:11;;;;;;;25.00;22.40;;;16.70;99.90;;;;;;4191546;28;20036;-72
2021/09/14 08:39:12;;;;;;;27.15;20.52;;;16.90;99.90;;;;;;4195402;28;20041;-72
2021/09/14 08:41:16;;;;;;;26.40;21.80;;;17.00;99.90;;;;;;4190625;28;20054;-73
2021/09/14 08:43:17;;;;;;;22.23;19.83;;;17.20;99.90;;;;;;4195056;28;20081;-71
2021/09/14 08:45:17;;;;;;;22.90;20.38;;;17.40;99.90;;;;;;4196782;28;20032;-71
2021/09/14 08:47:21;;;;;;;21.70;19.50;;;17.70;99.90;;;;;;4194834;28;20398;-72
2021/09/14 08:49:22;;;;;;;22.77;20.38;;;17.80;99.90;;;;;;4197182;28;20051;-71
2021/09/14 08:51:22;;;;;;;20.38;18.17;;;18.00;99.90;;;;;;4195358;28;20651;-71
2021/09/14 08:53:23;;;;;;;19.75;17.70;;;18.30;99.90;;;;;;4190398;28;20033;-72
2021/09/14 08:55:24;;;;;;;19.95;17.80;;;18.50;99.90;;;;;;4194885;28;20029;-71
2021/09/14 08:57:25;;;;;;;23.02;17.65;;;18.60;99.90;;;;;;4189023;28;20044;-72
2021/09/14 08:59:30;;;;;;;22.73;17.33;;;18.70;99.90;;;;;;4193807;28;20033;-72
2021/09/14 09:01:31;;;;;;;21.63;17.23;;;18.90;99.90;;;;;;4194181;28;20032;-71
2021/09/14 09:03:32;;;;;;;21.17;17.35;;;18.90;99.90;;;;;;4193931;28;20028;-72
2021/09/14 09:05:39;;;;;;;20.73;17.15;;;18.80;99.90;;;;;;4190910;28;20081;-72
2021/09/14 09:07:40;;;;;;;17.63;15.70;;;18.90;99.90;;;;;;4194328;28;20110;-69
2021/09/14 09:09:41;;;;;;;17.85;15.93;;;19.10;99.90;;;;;;4197765;28;20028;-70
2021/09/14 09:12:00;;;;;;;16.95;15.15;;;19.30;99.90;;;;;;4195785;28;20094;-70
2021/09/14 09:14:01;;;;;;;18.58;16.63;;;19.50;99.90;;;;;;4197546;28;20107;-71
2021/09/14 09:16:05;;;;;;;17.50;15.80;;;19.80;99.90;;;;;;4192275;28;20030;-70
2021/09/14 09:18:08;;;;;;;19.50;14.80;;;19.90;99.90;;;;;;4197277;28;20081;-71
2021/09/14 09:20:09;;;;;;;18.52;16.27;;;20.10;99.90;;;;;;4197481;28;20537;-71
2021/09/14 09:22:12;;;;;;;17.83;13.95;;;20.30;99.90;;;;;;4197034;28;20089;-69
2021/09/14 09:24:13;;;;;;;22.42;16.58;;;20.50;99.90;;;;;;4194462;28;20053;-70
2021/09/14 09:26:14;;;;;;;17.42;15.55;;;20.30;99.90;;;;;;4197010;28;20709;-70
2021/09/14 09:28:19;;;;;;;19.85;16.10;;;20.20;99.90;;;;;;4195466;28;20089;-71
2021/09/14 09:30:22;;;;;;;15.60;14.07;;;20.10;99.90;;;;;;4196389;28;20041;-71
2021/09/14 09:32:22;;;;;;;17.37;14.77;;;20.00;99.90;;;;;;4195659;28;20037;-71
2021/09/14 09:34:27;;;;;;;18.15;15.70;;;19.90;99.90;;;;;;4197147;28;20403;-71
2021/09/14 09:36:33;;;;;;;20.42;15.23;;;20.00;99.90;;;;;;4193668;28;20111;-70
2021/09/14 09:38:57;;;;;;;20.00;15.15;;;20.10;99.90;;;;;;4196856;28;20535;-71
2021/09/14 09:40:58;;;;;;;16.77;13.77;;;20.30;99.90;;;;;;4194345;28;20032;-71
2021/09/14 09:43:03;;;;;;;18.45;15.27;;;20.60;99.90;;;;;;4194544;28;20045;-71
2021/09/14 09:45:04;;;;;;;14.38;12.98;;;20.90;99.90;;;;;;4193520;28;20036;-71
2021/09/14 09:47:05;;;;;;;14.90;13.38;;;21.40;99.90;;;;;;4196148;28;20040;-71
2021/09/14 09:49:08;;;;;;;17.48;13.95;;;21.60;99.90;;;;;;4195013;28;20028;-71
2021/09/14 09:51:09;;;;;;;15.10;13.52;;;21.60;99.90;;;;;;4187085;28;20579;-71
2021/09/14 09:53:10;;;;;;;14.25;12.85;;;21.60;99.90;;;;;;4195606;28;20106;-72
2021/09/14 09:55:12;;;;;;;17.83;14.50;;;21.50;99.90;;;;;;4196673;28;20056;-71
2021/09/14 09:57:13;;;;;;;15.73;13.77;;;21.20;99.90;;;;;;4192700;28;20483;-71
2021/09/14 09:59:14;;;;;;;16.38;14.48;;;21.00;99.90;;;;;;4195822;28;20020;-71
2021/09/14 10:01:16;;;;;;;15.82;14.15;;;20.80;99.90;;;;;;4194911;28;20047;-71
2021/09/14 10:03:22;;;;;;;15.00;12.98;;;20.70;99.90;;;;;;4196170;28;20035;-72
2021/09/14 10:05:29;;;;;;;13.00;11.60;;;20.90;99.90;;;;;;4196908;28;20029;-70
2021/09/14 10:07:32;;;;;;;15.38;13.35;;;21.20;99.90;;;;;;4194414;28;20043;-69
2021/09/14 10:09:33;;;;;;;13.82;12.38;;;21.60;99.90;;;;;;4197775;28;20036;-71
2021/09/14 10:11:36;;;;;;;13.48;11.40;;;21.90;99.90;;;;;;4196442;28;20422;-71
2021/09/14 10:13:40;;;;;;;14.48;11.30;;;22.40;99.90;;;;;;4191472;28;20067;-71
2021/09/14 10:15:43;;;;;;;12.90;11.63;;;22.40;99.90;;;;;;4194158;28;20044;-71
2021/09/14 10:17:52;;;;;;;15.45;10.35;;;22.20;99.90;;;;;;4191736;28;20043;-70
2021/09/14 10:19:52;;;;;;;14.52;12.35;;;22.00;99.90;;;;;;4194835;28;20033;-71
2021/09/14 10:22:02;;;;;;;15.15;11.38;;;22.00;99.90;;;;;;4195881;28;20074;-69
2021/09/14 10:24:03;;;;;;;13.70;11.38;;;22.10;99.90;;;;;;4192104;28;20689;-70
2021/09/14 10:26:07;;;;;;;14.10;11.30;;;22.40;99.90;;;;;;4193690;28;20021;-71
2021/09/14 10:28:10;;;;;;;12.13;10.85;;;22.80;99.90;;;;;;4191987;28;20032;-69
2021/09/14 10:30:14;;;;;;;13.60;11.88;;;23.00;99.90;;;;;;4193127;28;20029;-70
2021/09/14 10:32:15;;;;;;;17.58;12.23;;;23.10;99.90;;;;;;4192044;28;20110;-70
2021/09/14 10:34:15;;;;;;;15.57;10.77;;;23.10;99.90;;;;;;4192868;28;20051;-72
2021/09/14 10:36:16;;;;;;;10.93;9.85;;;23.80;99.90;;;;;;4192785;28;20645;-69
2021/09/14 10:38:18;;;;;;;11.13;9.82;;;24.40;99.90;;;;;;4196076;28;20036;-69
2021/09/14 10:40:22;;;;;;;11.32;10.18;;;25.10;99.90;;;;;;4190992;28;20509;-70
2021/09/14 10:42:23;;;;;;;11.77;10.48;;;25.60;99.90;;;;;;4192854;28;20062;-70
2021/09/14 10:44:31;;;;;;;15.20;11.65;;;25.80;99.90;;;;;;4190979;28;20051;-70
2021/09/14 10:46:33;;;;;;;11.60;10.50;;;25.70;99.90;;;;;;4192762;28;20102;-70
2021/09/14 10:48:48;;;;;;;14.18;11.45;;;25.50;99.90;;;;;;4193954;28;20033;-71
2021/09/14 10:50:49;;;;;;;13.55;10.95;;;25.70;99.90;;;;;;4195763;28;20943;-71
2021/09/14 10:52:57;;;;;;;11.63;10.30;;;26.20;99.90;;;;;;4190819;28;20124;-71
2021/09/14 10:54:58;;;;;;;12.38;9.77;;;26.80;99.90;;;;;;4191431;28;20070;-71
2021/09/14 10:57:00;;;;;;;9.93;8.80;;;27.10;99.90;;;;;;4187771;28;20032;-71
2021/09/14 10:59:00;;;;;;;13.43;9.68;;;27.30;99.90;;;;;;4195666;28;20385;-72
2021/09/14 11:01:01;;;;;;;10.77;9.77;;;27.20;99.90;;;;;;4194134;28;20083;-72
2021/09/14 11:03:06;;;;;;;12.15;11.00;;;27.00;99.90;;;;;;4191361;28;20894;-72
2021/09/14 11:05:08;;;;;;;12.02;10.82;;;26.30;99.90;;;;;;4188511;28;20072;-72
2021/09/14 11:07:12;;;;;;;13.18;10.40;;;26.00;99.90;;;;;;4195751;28;20055;-72
2021/09/14 11:09:13;;;;;;;12.52;10.77;;;25.40;99.90;;;;;;4195808;28;20036;-72
2021/09/14 11:11:18;;;;;;;11.02;9.88;;;25.10;99.90;;;;;;4195722;28;20139;-71